Farler, Kentucky
Current Conditions -  °F | °C
As of 6:55 AM on Friday 28 Nov 2014 (Local Time) from KI35 Reporting Station
Overcast Overcast  
Wind Chill: 19°   Ceiling: 2300
Heat Index: 27°   Visibility: 10mi
Dew Point: 19°   Wind: 7mph
Humidity: 74%   Direction: 290°WNW
Pressure: 30.38"   Gusts: NA
Location:  37.1364°N, 83.1633°W
Report Text: KI35 281155Z AUTO 29006KT 10SM OVC023 M03/M07 A3038 RMK AO1
Loading
Personal Weather Stations






























Interactive Weather Map New forecast layout! Learn more

10-Day Weather Forecast

Advertisements
Track Severe Weather on mobile